• Join FlightAware (Why Join?)
  • Login
  • US Flag 
12:53PM EDT


 

Airport Tracker/Info


-or-


 

Live Flight TrackerFlight Track Log ✈ N102WY ✈ 02-Nov-2013 ✈ KRKS - KCYS

Flight Track Log - Related Links

Times and Time Zones

All times are in EDT time to prevent confusion due to time zone crossing. See the N102WY flight status page for this flight to view local times or setup timezone preferences in your user account.

Time Position Orientation Groundspeed Altitude Reporting Facility
EDT Latitude Longitude Course Direction KTS MPH feet Rate Location/Type
07:22PM 41.5283 -109.0886 104° East 273 314 13,200  Level Salt Lake Center
07:23PM 41.5092 -108.9831 104° East 301 346 16,700 3,240 Climbing Salt Lake Center
07:24PM 41.5028 -108.8389 93° East 341 392 19,900 2,760 Climbing Salt Lake Center
07:25PM 41.4939 -108.7044 95° East 374 430 22,400 2,400 Climbing Salt Lake Center
07:26PM 41.4842 -108.5675 95° East 385 443 24,900 2,580 Climbing Salt Lake Center
07:27PM 41.4733 -108.4061 95° East 392 451 27,700 2,280 Climbing Salt Lake Center
07:28PM 41.4628 -108.2647 96° East 400 460 29,600 2,040 Climbing Salt Lake Center
07:29PM 41.4508 -108.0986 95° East 404 465 31,900 1,620 Climbing Salt Lake Center
07:30PM 41.4383 -107.9528 96° East 411 473 33,000 480 Climbing Salt Lake Center
07:31PM 41.4278 -107.8056 95° East 416 479 33,000  Level Salt Lake Center
07:32PM 41.4142 -107.6331 96° East 420 483 33,000  Level Salt Lake Center
07:33PM 41.4031 -107.4883 96° East 417 480 33,000  Level Salt Lake Center
07:34PM 41.3906 -107.3422 96° East 416 479 33,000  Level Salt Lake Center
07:35PM 41.3769 -107.1728 96° East 414 476 33,000  Level Salt Lake Center
07:36PM 41.3656 -107.0283 96° East 411 473 33,000  Level Salt Lake Center
07:37PM 41.3506 -106.8600 97° East 411 473 33,000  Level Salt Lake Center
07:38PM 41.3378 -106.7150 97° East 411 473 33,000  Level Salt Lake Center
07:39PM 41.3239 -106.5672 97° East 420 483 33,000 -60 Level Salt Lake Center
07:40PM 41.3039 -106.3289 96° East 410 472 32,900 -660 Descending Denver Center
07:41PM 41.2883 -106.1797 98° East 419 482 31,500 -1,800 Descending Denver Center
07:42PM 41.2753 -106.0419 97° East 404 465 29,300 -2,460 Descending Denver Center
07:43PM 41.2611 -105.8903 97° East 379 436 26,500 -2,760 Descending Denver Center
07:44PM 41.2494 -105.7653 97° East 363 418 23,700 -3,000 Descending Denver Center
07:45PM 41.2353 -105.6153 97° East 366 421 20,400 -3,000 Descending Denver Center
07:46PM 41.2214 -105.4911 98° East 361 415 17,600 -2,880 Descending Denver Center
07:47PM 41.2072 -105.3500 98° East 351 404 14,600 -2,580 Descending Denver Center
07:49PM 41.1958 -105.2369 98° East 336 387 12,400 -2,160 Descending Denver Center
07:51PM 41.1694 -104.9683 96° East  Level FlightAware Approximate
07:58PM 41.1556 -104.8105 99° East  Level Estimated
07:59PM 41.1556 -104.8105 99° East  Level Estimated
08:00PM 41.1556 -104.8105 99° East  Level Estimated
08:01PM 41.1556 -104.8105 99° East  Level Estimated
08:02PM 41.1556 -104.8105 99° East  Level Estimated